Time;durP1;ratioP1;P1;durP2;ratioP2;P2;SDS_P1;SDS_P2;PMS_P1;PMS_P2;Temp;Humidity;BMP_temperature;BMP_pressure;BME280_temperature;BME280_humidity;BME280_pressure;Samples;Min_cycle;Max_cycle;Signal;HPM_P1;HPM_P2
2022/03/10 00:02:19;;;;;;;;;45.75;37.25;;;;;9.92;56.67;101766.44;5025149;28;45369;-69
2022/03/10 00:04:44;;;;;;;;;53.50;40.50;;;;;9.94;56.80;101768.00;5024150;28;46056;-69
2022/03/10 00:07:10;;;;;;;;;43.75;38.00;;;;;9.90;57.08;101769.25;5024628;28;45511;-69
2022/03/10 00:09:35;;;;;;;;;47.00;38.50;;;;;9.90;56.78;101766.53;5024783;28;45665;-69
2022/03/10 00:12:01;;;;;;;;;46.50;38.00;;;;;9.90;56.85;101761.09;5023260;28;45393;-69
2022/03/10 00:14:27;;;;;;;;;39.25;34.25;;;;;9.87;56.89;101768.59;5024456;28;45498;-69
2022/03/10 00:16:52;;;;;;;;;51.75;38.50;;;;;9.86;56.87;101773.19;5024885;28;45337;-69
2022/03/10 00:19:18;;;;;;;;;44.50;36.25;;;;;9.82;57.16;101768.09;5021647;28;45378;-69
2022/03/10 00:21:44;;;;;;;;;43.00;38.25;;;;;9.75;57.00;101760.44;5023925;28;45502;-69
2022/03/10 00:24:10;;;;;;;;;46.25;37.75;;;;;9.76;56.84;101764.03;5023804;28;46332;-69
2022/03/10 00:26:38;;;;;;;;;41.25;37.25;;;;;9.76;57.32;101766.75;5024554;28;45290;-69
2022/03/10 00:29:05;;;;;;;;;51.75;40.00;;;;;9.70;57.51;101770.81;5023765;28;45398;-69
2022/03/10 00:31:30;;;;;;;;;53.50;43.75;;;;;9.69;57.15;101769.06;5025166;28;45578;-68
2022/03/10 00:33:57;;;;;;;;;48.50;39.25;;;;;9.66;57.42;101769.28;5022413;28;46843;-69
2022/03/10 00:36:23;;;;;;;;;53.25;41.50;;;;;9.66;57.21;101763.00;5024244;28;45437;-69
2022/03/10 00:38:48;;;;;;;;;46.00;38.00;;;;;9.63;57.66;101777.69;5019104;28;45430;-69
2022/03/10 00:41:14;;;;;;;;;52.50;41.00;;;;;9.57;57.78;101774.56;5023630;28;45280;-69
2022/03/10 00:43:39;;;;;;;;;55.00;38.50;;;;;9.51;57.98;101775.00;5023632;28;45707;-69
2022/03/10 00:46:04;;;;;;;;;43.75;36.75;;;;;9.49;57.83;101774.28;5024316;28;45372;-68
2022/03/10 00:48:30;;;;;;;;;43.25;37.25;;;;;9.49;57.67;101777.00;5022514;28;45397;-68
2022/03/10 00:50:55;;;;;;;;;46.50;35.75;;;;;9.48;57.87;101775.28;5024531;28;45474;-67
2022/03/10 00:53:21;;;;;;;;;42.75;38.25;;;;;9.48;58.44;101772.56;5022337;28;47588;-67
2022/03/10 00:55:46;;;;;;;;;45.00;36.25;;;;;9.47;57.75;101784.38;5023663;28;45334;-67
2022/03/10 00:58:12;;;;;;;;;52.50;38.25;;;;;9.44;58.17;101780.03;5023569;28;45409;-67
2022/03/10 01:00:38;;;;;;;;;47.00;38.00;;;;;9.44;58.14;101773.75;5024646;28;45502;-68
2022/03/10 01:03:05;;;;;;;;;39.25;34.50;;;;;9.38;57.89;101769.66;5027961;28;47013;-67
2022/03/10 01:05:30;;;;;;;;;42.50;35.50;;;;;9.36;58.72;101777.03;5035450;28;45407;-67
2022/03/10 01:07:56;;;;;;;;;46.75;37.00;;;;;9.31;58.77;101779.25;5014917;28;45408;-67
2022/03/10 01:10:21;;;;;;;;;45.75;38.00;;;;;9.21;58.77;101778.19;5024556;28;45742;-68
2022/03/10 01:12:47;;;;;;;;;45.75;38.00;;;;;9.23;58.92;101782.53;5023381;28;46328;-68
2022/03/10 01:15:19;;;;;;;;;51.50;40.00;;;;;9.21;58.82;101784.47;5023910;28;45307;-68
2022/03/10 01:17:44;;;;;;;;;47.75;37.75;;;;;9.20;58.99;101782.78;5033785;28;45553;-67
2022/03/10 01:20:12;;;;;;;;;52.25;38.00;;;;;9.16;58.82;101780.38;5022489;28;45411;-68
2022/03/10 01:22:38;;;;;;;;;39.75;36.50;;;;;9.16;58.63;101770.41;5023111;28;46249;-68
2022/03/10 01:25:06;;;;;;;;;49.50;38.75;;;;;9.10;59.27;101780.84;5031021;28;45487;-68
2022/03/10 01:27:32;;;;;;;;;47.50;39.50;;;;;9.05;59.24;101789.34;5023002;28;45158;-67
2022/03/10 01:29:57;;;;;;;;;46.75;40.50;;;;;8.97;59.25;101773.63;5023917;28;45410;-68
2022/03/10 01:32:23;;;;;;;;;45.75;35.75;;;;;8.97;59.44;101775.47;5038235;28;46896;-68
2022/03/10 01:34:49;;;;;;;;;51.75;37.50;;;;;8.90;59.50;101766.06;5021907;28;45324;-67
2022/03/10 01:37:14;;;;;;;;;46.50;39.50;;;;;8.89;59.28;101772.47;5037594;28;45520;-68
2022/03/10 01:39:40;;;;;;;;;48.25;36.50;;;;;8.89;59.49;101773.34;5023774;28;45352;-68
2022/03/10 01:42:06;;;;;;;;;33.75;29.50;;;;;8.91;59.24;101792.19;5022924;28;46390;-67
2022/03/10 01:44:33;;;;;;;;;48.50;37.75;;;;;8.89;59.26;101773.34;5023485;28;45557;-68
2022/03/10 01:46:58;;;;;;;;;54.25;41.00;;;;;8.88;59.12;101773.44;5023082;28;45176;-68
2022/03/10 01:49:24;;;;;;;;;44.75;36.75;;;;;8.88;58.97;101770.72;5023443;28;45341;-68
2022/03/10 01:51:49;;;;;;;;;40.00;35.75;;;;;8.86;59.51;101773.53;5021269;28;47141;-68
2022/03/10 01:54:15;;;;;;;;;39.00;34.00;;;;;8.84;59.39;101775.50;5022647;28;45385;-67
2022/03/10 01:56:41;;;;;;;;;45.75;35.50;;;;;8.83;59.26;101772.91;5023293;28;45154;-67
2022/03/10 01:59:06;;;;;;;;;42.00;34.75;;;;;8.80;59.23;101759.56;5022912;28;45418;-67
2022/03/10 02:01:32;;;;;;;;;46.25;36.25;;;;;8.77;59.46;101767.91;5023012;28;45544;-69
2022/03/10 02:03:58;;;;;;;;;49.00;37.25;;;;;8.67;59.57;101753.34;5022453;28;45341;-68
2022/03/10 02:06:24;;;;;;;;;49.75;36.75;;;;;8.66;59.49;101759.72;5022980;28;45624;-68
2022/03/10 02:11:36;;;;;;;;;51.50;37.25;;;;;8.62;59.73;101759.06;5020413;28;45797;-67
2022/03/10 02:17:19;;;;;;;;;45.50;36.00;;;;;8.58;60.14;101757.56;5022462;28;45462;-68
2022/03/10 02:19:31;;;;;;;;;39.75;35.75;;;;;8.53;59.67;101760.63;5022924;28;45451;-68
2022/03/10 02:21:57;;;;;;;;;47.75;37.75;;;;;8.51;59.68;101759.00;5021553;28;45829;-68
2022/03/10 02:24:24;;;;;;;;;38.00;35.00;;;;;8.50;59.45;101763.53;5027399;28;45303;-68
2022/03/10 02:26:49;;;;;;;;;42.50;36.00;;;;;8.45;59.75;101763.00;5035101;28;45236;-68
2022/03/10 02:29:15;;;;;;;;;37.50;31.75;;;;;8.43;59.91;101761.38;5021114;28;45490;-68
2022/03/10 02:31:41;;;;;;;;;42.25;36.00;;;;;8.45;59.63;101759.44;5023101;28;46391;-68
2022/03/10 02:34:09;;;;;;;;;38.25;30.75;;;;;8.44;60.02;101766.69;5021681;28;45279;-68
2022/03/10 02:36:34;;;;;;;;;36.75;33.25;;;;;8.46;59.87;101770.16;5023056;28;45406;-68
2022/03/10 02:39:00;;;;;;;;;40.00;35.00;;;;;8.42;59.84;101762.34;5022385;28;45275;-68
2022/03/10 02:41:25;;;;;;;;;42.00;36.75;;;;;8.45;60.05;101772.97;5021285;28;46874;-68
2022/03/10 02:43:50;;;;;;;;;41.50;35.75;;;;;8.39;59.76;101768.88;5020690;28;45312;-68
2022/03/10 02:46:16;;;;;;;;;52.75;37.75;;;;;8.41;59.72;101777.72;5021191;28;45375;-67
2022/03/10 02:48:41;;;;;;;;;36.50;30.50;;;;;8.40;59.88;101770.56;5022554;28;45477;-68
2022/03/10 02:51:06;;;;;;;;;34.50;31.25;;;;;8.40;58.94;101767.88;5020965;28;48231;-68
2022/03/10 02:53:32;;;;;;;;;46.75;35.75;;;;;8.43;58.96;101766.78;5021850;28;45521;-67
2022/03/10 02:55:57;;;;;;;;;40.00;32.75;;;;;8.48;58.58;101773.59;5022643;28;45324;-68
2022/03/10 02:58:22;;;;;;;;;40.50;31.75;;;;;8.48;58.19;101765.47;5021027;28;45795;-68
2022/03/10 03:00:49;;;;;;;;;34.75;32.25;;;;;8.50;58.25;101768.97;5022452;28;46043;-68
2022/03/10 03:03:15;;;;;;;;;39.50;30.00;;;;;8.55;58.15;101771.31;5022573;28;45330;-68
2022/03/10 03:05:40;;;;;;;;;37.50;33.25;;;;;8.54;57.49;101764.19;5024419;28;45298;-67
2022/03/10 03:08:06;;;;;;;;;32.75;28.50;;;;;8.58;57.58;101771.13;5024175;28;45248;-68
2022/03/10 03:10:36;;;;;;;;;32.25;29.00;;;;;8.56;57.30;101765.81;5018645;28;46939;-68
2022/03/10 03:13:03;;;;;;;;;38.75;32.25;;;;;8.56;57.70;101776.63;5017360;28;45351;-68
2022/03/10 03:15:28;;;;;;;;;36.25;28.50;;;;;8.47;57.24;101761.06;5015862;28;45336;-67
2022/03/10 03:17:54;;;;;;;;;35.25;29.00;;;;;8.52;57.76;101774.28;5024075;28;45211;-68
2022/03/10 03:20:19;;;;;;;;;31.75;30.00;;;;;8.53;57.94;101781.41;5025279;28;45620;-68
2022/03/10 03:22:45;;;;;;;;;34.00;29.25;;;;;8.52;57.46;101772.44;5023212;28;46017;-69
2022/03/10 03:25:13;;;;;;;;;33.75;30.50;;;;;8.51;57.68;101773.41;5025890;28;45293;-68
2022/03/10 03:27:39;;;;;;;;;34.00;29.00;;;;;8.54;57.08;101781.31;5025251;28;45695;-68
2022/03/10 03:30:05;;;;;;;;;38.75;32.50;;;;;8.56;57.96;101784.75;5025342;28;45361;-68
2022/03/10 03:32:31;;;;;;;;;37.00;33.25;;;;;8.46;58.31;101790.97;5024832;28;45320;-68
2022/03/10 03:34:56;;;;;;;;;33.25;28.00;;;;;8.49;57.30;101779.88;5023917;28;45406;-68
2022/03/10 03:37:22;;;;;;;;;36.75;34.25;;;;;8.56;57.31;101789.31;5024135;28;45228;-68
2022/03/10 03:39:47;;;;;;;;;29.50;23.75;;;;;8.62;57.27;101796.16;5020721;28;48078;-68
2022/03/10 03:42:12;;;;;;;;;34.00;30.25;;;;;8.65;56.99;101796.78;5019666;28;45429;-68
2022/03/10 03:44:38;;;;;;;;;34.75;31.25;;;;;8.66;56.32;101786.81;5024151;28;45260;-68
2022/03/10 03:47:03;;;;;;;;;35.50;31.00;;;;;8.68;56.59;101784.88;5025331;28;45277;-68
2022/03/10 03:49:28;;;;;;;;;37.50;31.50;;;;;8.69;56.75;101786.59;5024231;28;45709;-68
2022/03/10 03:51:54;;;;;;;;;41.75;30.50;;;;;8.73;56.54;101788.97;5039704;28;45475;-68
2022/03/10 03:54:19;;;;;;;;;36.00;29.75;;;;;8.74;56.39;101795.25;5016069;28;45527;-68
2022/03/10 03:56:45;;;;;;;;;38.50;34.25;;;;;8.73;56.38;101793.53;5023629;28;45521;-68
2022/03/10 03:59:10;;;;;;;;;37.50;31.75;;;;;8.70;56.65;101791.03;5024290;28;46294;-68
2022/03/10 04:01:35;;;;;;;;;31.50;24.50;;;;;8.71;56.94;101798.16;5024865;28;45283;-68
2022/03/10 04:04:01;;;;;;;;;39.75;35.00;;;;;8.72;56.62;101791.78;5022725;28;45542;-68
2022/03/10 04:06:26;;;;;;;;;43.25;34.00;;;;;8.73;56.22;101797.09;5025246;28;45433;-68
2022/03/10 04:08:52;;;;;;;;;39.50;34.75;;;;;8.65;56.90;101782.38;5024301;28;46419;-68
2022/03/10 04:11:17;;;;;;;;;39.50;32.75;;;;;8.63;57.08;101792.44;5025100;28;45576;-68
2022/03/10 04:13:43;;;;;;;;;42.25;33.50;;;;;8.61;57.50;101802.53;5023981;28;45882;-68
2022/03/10 04:16:09;;;;;;;;;39.00;31.25;;;;;8.56;57.03;101798.31;5025019;28;45386;-68
2022/03/10 04:18:35;;;;;;;;;43.75;36.00;;;;;8.58;57.14;101800.91;5028372;28;46993;-68
2022/03/10 04:21:01;;;;;;;;;39.75;33.00;;;;;8.55;56.89;101799.28;5024282;28;45485;-68
2022/03/10 04:23:26;;;;;;;;;37.50;32.75;;;;;8.56;56.90;101802.84;5024429;28;45487;-68
2022/03/10 04:25:53;;;;;;;;;36.50;31.75;;;;;8.55;57.16;101801.13;5023560;28;45376;-68
2022/03/10 04:28:18;;;;;;;;;38.50;33.50;;;;;8.49;57.08;101799.72;5023470;28;45406;-68
2022/03/10 04:30:44;;;;;;;;;34.75;32.25;;;;;8.48;56.95;101811.53;5024509;28;45300;-68
2022/03/10 04:33:09;;;;;;;;;36.50;29.75;;;;;8.45;57.48;101817.19;5024283;28;45311;-67
2022/03/10 04:35:36;;;;;;;;;33.00;29.50;;;;;8.48;57.21;101818.78;5022486;28;45684;-68
2022/03/10 04:38:01;;;;;;;;;28.50;25.00;;;;;8.41;57.32;101820.19;5031466;28;48690;-68
2022/03/10 04:40:27;;;;;;;;;35.50;31.75;;;;;8.35;58.25;101816.09;5023985;28;45424;-68
2022/03/10 04:42:53;;;;;;;;;36.00;29.00;;;;;8.35;57.73;101812.50;5024046;28;45549;-68
2022/03/10 04:45:18;;;;;;;;;33.25;27.75;;;;;8.31;57.73;101817.28;5024606;28;45303;-69
2022/03/10 04:47:44;;;;;;;;;31.00;27.50;;;;;8.28;57.77;101816.59;5023683;28;46265;-68
2022/03/10 04:50:11;;;;;;;;;30.75;25.75;;;;;8.29;58.21;101816.47;5023805;28;45354;-68
2022/03/10 04:52:37;;;;;;;;;33.50;31.00;;;;;8.28;58.22;101814.75;5023843;28;45410;-68
2022/03/10 04:55:03;;;;;;;;;38.50;36.00;;;;;8.25;58.28;101820.41;5023084;28;45318;-68
2022/03/10 04:57:29;;;;;;;;;37.50;32.75;;;;;8.23;58.41;101816.06;5023595;28;45653;-68
2022/03/10 04:59:54;;;;;;;;;41.25;30.00;;;;;8.19;58.39;101818.09;5030650;28;45231;-67
2022/03/10 05:02:19;;;;;;;;;27.75;23.25;;;;;8.18;58.69;101817.22;5023688;28;45589;-68
2022/03/10 05:04:45;;;;;;;;;33.25;32.25;;;;;8.11;59.05;101810.50;5024184;28;45361;-68
2022/03/10 05:07:10;;;;;;;;;37.75;31.00;;;;;8.09;59.37;101808.91;5021870;28;46892;-68
2022/03/10 05:09:36;;;;;;;;;33.75;31.75;;;;;8.01;59.64;101809.44;5023809;28;45241;-68
2022/03/10 05:12:02;;;;;;;;;33.50;28.00;;;;;7.99;59.34;101807.78;5023777;28;45185;-67
2022/03/10 05:14:28;;;;;;;;;43.00;31.00;;;;;8.04;59.91;101819.16;5023942;28;45413;-67
2022/03/10 05:16:53;;;;;;;;;41.00;33.50;;;;;7.97;59.91;101821.41;5023803;28;45462;-67
2022/03/10 05:19:19;;;;;;;;;38.25;35.50;;;;;7.88;60.13;101818.50;5022452;28;45536;-67
2022/03/10 05:21:44;;;;;;;;;43.25;36.75;;;;;7.86;60.14;101818.59;5023898;28;45327;-67
2022/03/10 05:24:11;;;;;;;;;44.00;37.00;;;;;7.87;60.45;101822.19;5020466;28;45419;-68
2022/03/10 05:26:37;;;;;;;;;41.00;35.50;;;;;7.78;60.64;101813.72;5022702;28;45343;-67
2022/03/10 05:29:03;;;;;;;;;41.75;36.00;;;;;7.80;61.08;101814.47;5022423;28;45405;-68
2022/03/10 05:31:28;;;;;;;;;40.75;33.00;;;;;7.73;61.03;101810.47;5019916;28;45450;-68
2022/03/10 05:33:54;;;;;;;;;44.75;36.25;;;;;7.74;60.97;101808.63;5013968;28;45382;-68
2022/03/10 05:36:19;;;;;;;;;43.75;32.50;;;;;7.76;60.75;101815.66;5022018;28;46886;-68
2022/03/10 05:38:45;;;;;;;;;48.25;40.00;;;;;7.73;61.01;101813.16;5021191;28;45339;-68
2022/03/10 05:41:11;;;;;;;;;40.25;34.75;;;;;7.76;61.09;101818.34;5022004;28;45255;-70
2022/03/10 05:43:36;;;;;;;;;41.00;36.25;;;;;7.77;60.61;101813.81;5019643;28;45288;-68
2022/03/10 05:46:02;;;;;;;;;42.75;37.25;;;;;7.76;60.98;101822.88;5022232;28;46608;-68
2022/03/10 05:48:27;;;;;;;;;36.50;29.75;;;;;7.65;61.27;101811.94;5019506;28;46769;-68
2022/03/10 05:50:53;;;;;;;;;38.00;34.50;;;;;7.62;61.23;101807.59;5018548;28;45474;-68
2022/03/10 05:53:18;;;;;;;;;43.00;32.25;;;;;7.59;61.31;101802.41;5019572;28;45388;-68
2022/03/10 05:55:45;;;;;;;;;42.50;35.75;;;;;7.68;61.27;101812.59;5021304;28;46615;-68
2022/03/10 05:58:10;;;;;;;;;36.25;31.00;;;;;7.64;61.18;101804.81;5018981;28;45497;-68
2022/03/10 06:00:36;;;;;;;;;31.50;30.50;;;;;7.62;61.66;101815.72;5019769;28;45470;-69
2022/03/10 06:03:01;;;;;;;;;40.50;29.25;;;;;7.61;61.32;101813.97;5020761;28;45474;-69
2022/03/10 06:05:27;;;;;;;;;34.75;28.50;;;;;7.60;61.53;101814.06;5016226;28;45513;-69
2022/03/10 06:07:52;;;;;;;;;31.50;29.00;;;;;7.62;61.54;101822.97;5021684;28;45370;-69
2022/03/10 06:10:17;;;;;;;;;38.50;33.00;;;;;7.63;61.50;101822.00;5022025;28;45229;-69
2022/03/10 06:12:43;;;;;;;;;46.00;36.00;;;;;7.62;62.06;101826.53;5021839;28;45600;-69
2022/03/10 06:15:10;;;;;;;;;39.50;37.00;;;;;7.61;61.66;101822.09;5022158;28;45344;-68
2022/03/10 06:17:36;;;;;;;;;43.25;36.25;;;;;7.56;61.88;101813.44;5020418;28;45278;-69
2022/03/10 06:20:03;;;;;;;;;41.50;35.50;;;;;7.57;62.03;101817.88;5020521;28;45328;-69
2022/03/10 06:22:29;;;;;;;;;43.50;32.75;;;;;7.59;61.67;101815.94;5020265;28;45411;-69
2022/03/10 06:24:55;;;;;;;;;38.50;33.75;;;;;7.62;61.94;101815.72;5027028;28;48354;-69
2022/03/10 06:27:24;;;;;;;;;38.50;34.50;;;;;7.54;61.99;101815.34;5018608;28;45558;-69
2022/03/10 06:29:51;;;;;;;;;39.25;35.75;;;;;7.55;61.91;101818.94;5019843;28;45460;-69
2022/03/10 06:32:18;;;;;;;;;39.25;36.25;;;;;7.54;62.49;101822.59;5021557;28;45721;-69
2022/03/10 06:34:45;;;;;;;;;47.50;33.25;;;;;7.56;62.33;101826.94;5019201;28;45389;-69
2022/03/10 06:37:12;;;;;;;;;39.25;35.25;;;;;7.64;62.06;101832.72;5034904;28;45343;-69
2022/03/10 06:39:37;;;;;;;;;38.75;34.25;;;;;7.73;61.86;101832.09;5033135;28;45334;-69
2022/03/10 06:42:05;;;;;;;;;40.75;34.50;;;;;7.72;62.15;101832.19;5025706;28;45340;-68
2022/03/10 06:44:31;;;;;;;;;42.00;35.00;;;;;7.77;61.82;101825.50;5024059;28;47943;-68
2022/03/10 06:46:57;;;;;;;;;42.00;35.75;;;;;7.80;62.02;101828.00;5021018;28;45281;-68
2022/03/10 06:49:22;;;;;;;;;43.00;36.50;;;;;7.85;61.81;101826.81;5023381;28;45616;-68
2022/03/10 06:51:48;;;;;;;;;46.25;38.50;;;;;7.93;61.60;101825.31;5024714;28;45508;-69
2022/03/10 06:54:14;;;;;;;;;42.75;30.75;;;;;8.00;61.53;101826.63;5024566;28;46025;-68
2022/03/10 06:56:40;;;;;;;;;36.00;32.00;;;;;8.12;60.96;101830.31;5023664;28;46248;-69
2022/03/10 06:59:05;;;;;;;;;40.00;36.75;;;;;8.20;60.68;101828.81;5024783;28;45975;-69
2022/03/10 07:01:31;;;;;;;;;36.25;32.50;;;;;8.29;60.56;101827.31;5024962;28;45335;-69
2022/03/10 07:03:57;;;;;;;;;35.75;32.25;;;;;8.38;60.28;101833.97;5022621;28;46796;-68
2022/03/10 07:06:23;;;;;;;;;47.75;39.25;;;;;8.49;60.51;101840.34;5024669;28;45481;-67
2022/03/10 07:08:49;;;;;;;;;39.50;35.25;;;;;8.51;60.12;101833.00;5024669;28;45388;-68
2022/03/10 07:11:15;;;;;;;;;41.00;37.25;;;;;8.61;59.81;101846.75;5038013;28;45438;-69
2022/03/10 07:13:40;;;;;;;;;41.75;37.50;;;;;8.74;59.33;101849.44;5024474;28;45699;-67
2022/03/10 07:16:05;;;;;;;;;35.25;31.50;;;;;8.84;58.87;101840.53;5025886;28;45417;-68
2022/03/10 07:18:31;;;;;;;;;39.25;29.50;;;;;9.05;58.91;101843.56;5024139;28;45499;-70
2022/03/10 07:20:56;;;;;;;;;41.25;36.25;;;;;9.26;58.04;101847.41;5024463;28;45545;-69
2022/03/10 07:23:22;;;;;;;;;40.50;34.00;;;;;9.27;57.78;101842.84;5022865;28;45407;-68
2022/03/10 07:25:47;;;;;;;;;33.50;29.75;;;;;9.38;58.00;101851.91;5023943;28;45344;-69
2022/03/10 07:28:13;;;;;;;;;34.25;32.00;;;;;9.44;57.00;101855.13;5022872;28;45255;-68
2022/03/10 07:30:38;;;;;;;;;44.00;34.75;;;;;9.44;57.29;101845.16;5024217;28;45340;-68
2022/03/10 07:33:04;;;;;;;;;38.50;33.75;;;;;9.57;57.05;101848.66;5023405;28;46173;-68
2022/03/10 07:35:29;;;;;;;;;46.75;39.50;;;;;9.70;56.93;101848.63;5023924;28;45432;-69
2022/03/10 07:37:56;;;;;;;;;94.25;73.25;;;;;9.75;56.63;101832.84;5023977;28;45363;-69
2022/03/10 07:40:22;;;;;;;;;47.00;40.00;;;;;9.96;56.23;101846.63;5022896;28;45520;-69
2022/03/10 07:42:48;;;;;;;;;50.75;37.25;;;;;10.05;56.05;101845.94;5020410;28;47316;-69
2022/03/10 07:45:13;;;;;;;;;41.50;34.75;;;;;10.22;55.95;101858.25;5023487;28;45329;-69
2022/03/10 07:47:39;;;;;;;;;58.75;45.00;;;;;10.35;55.43;101850.88;5023864;28;45535;-70
2022/03/10 07:50:06;;;;;;;;;45.25;37.25;;;;;10.49;55.05;101847.94;5022922;28;45319;-69
2022/03/10 07:52:32;;;;;;;;;48.50;38.00;;;;;10.68;54.71;101850.03;5023565;28;45401;-69
2022/03/10 07:54:57;;;;;;;;;45.25;32.25;;;;;10.87;54.74;101844.88;5023998;28;46068;-69
2022/03/10 07:57:23;;;;;;;;;42.50;34.75;;;;;11.06;53.39;101847.81;5022358;28;45624;-69
2022/03/10 07:59:48;;;;;;;;;40.50;31.75;;;;;11.25;53.01;101847.19;5031609;28;45481;-69
2022/03/10 08:02:13;;;;;;;;;35.25;31.00;;;;;11.41;53.93;101844.06;5022120;28;47113;-69
2022/03/10 08:04:39;;;;;;;;;35.50;32.75;;;;;11.74;52.84;101849.44;5023790;28;45381;-70
2022/03/10 08:07:05;;;;;;;;;33.25;29.00;;;;;11.95;52.41;101847.63;5023910;28;45347;-69
2022/03/10 08:09:30;;;;;;;;;39.75;36.00;;;;;12.09;50.76;101846.44;5024836;28;45445;-69
2022/03/10 08:11:56;;;;;;;;;38.50;34.75;;;;;12.13;50.48;101847.91;5023368;28;47404;-69
2022/03/10 08:14:21;;;;;;;;;30.50;28.50;;;;;12.14;51.29;101840.59;5022185;28;45803;-69
2022/03/10 08:16:46;;;;;;;;;27.75;25.75;;;;;12.31;51.07;101850.91;5024835;28;45308;-69
2022/03/10 08:19:12;;;;;;;;;33.25;29.25;;;;;12.55;50.38;101847.91;5012755;28;45299;-69
2022/03/10 08:21:37;;;;;;;;;34.50;31.75;;;;;12.77;49.73;101842.28;5010872;28;46111;-69
2022/03/10 08:24:04;;;;;;;;;36.25;29.75;;;;;12.94;50.11;101844.38;5018262;28;45397;-69
2022/03/10 08:26:29;;;;;;;;;36.25;30.50;;;;;13.04;49.00;101845.28;5022178;28;45374;-68
2022/03/10 08:28:54;;;;;;;;;36.25;33.50;;;;;13.25;48.50;101846.09;5020615;28;45378;-68
2022/03/10 08:31:21;;;;;;;;;42.50;34.75;;;;;13.32;48.88;101838.22;5035677;28;48027;-68
2022/03/10 08:33:46;;;;;;;;;29.50;29.00;;;;;13.47;47.71;101844.16;5012073;28;45442;-68
2022/03/10 08:36:13;;;;;;;;;37.75;33.25;;;;;13.61;47.47;101841.88;5023417;28;45516;-68
2022/03/10 08:38:38;;;;;;;;;29.25;28.50;;;;;13.88;47.08;101837.59;5023697;28;45382;-68
2022/03/10 08:41:04;;;;;;;;;29.75;27.25;;;;;14.07;48.14;101839.47;5023174;28;45455;-68
2022/03/10 08:43:31;;;;;;;;;36.25;33.00;;;;;14.15;46.01;101842.34;5023346;28;45424;-68
2022/03/10 08:45:57;;;;;;;;;27.50;27.25;;;;;14.26;45.47;101839.44;5023755;28;45331;-68
2022/03/10 08:48:22;;;;;;;;;31.50;29.00;;;;;14.35;44.95;101823.03;5023420;28;45493;-68
2022/03/10 08:50:48;;;;;;;;;32.25;29.50;;;;;14.67;46.82;101830.91;5034813;28;47376;-69
2022/03/10 08:53:13;;;;;;;;;33.00;29.75;;;;;14.88;45.29;101827.94;5015753;28;45402;-67
2022/03/10 08:55:39;;;;;;;;;32.00;30.00;;;;;14.85;44.78;101816.41;5018951;28;45499;-67
2022/03/10 08:58:04;;;;;;;;;34.50;30.00;;;;;15.07;44.48;101829.72;5017430;28;45257;-67
2022/03/10 09:00:30;;;;;;;;;32.50;30.00;;;;;15.17;43.88;101830.56;5023399;28;46454;-67
2022/03/10 09:02:57;;;;;;;;;40.00;33.50;;;;;15.21;43.75;101831.94;5022988;28;45698;-68
2022/03/10 09:05:22;;;;;;;;;34.00;31.50;;;;;15.36;44.58;101830.44;5023061;28;45319;-68
2022/03/10 09:07:48;;;;;;;;;39.00;31.25;;;;;15.40;42.75;101829.13;5023215;28;45481;-68
2022/03/10 09:10:13;;;;;;;;;29.25;28.00;;;;;15.34;44.15;101826.97;5023467;28;45361;-68
2022/03/10 09:12:39;;;;;;;;;31.50;30.00;;;;;15.61;44.00;101822.53;5022760;28;45375;-68
2022/03/10 09:15:06;;;;;;;;;29.00;26.75;;;;;15.86;43.02;101816.25;5010433;28;45402;-68
2022/03/10 09:17:31;;;;;;;;;27.50;27.50;;;;;15.89;43.78;101813.22;5015860;28;45434;-68
2022/03/10 09:19:57;;;;;;;;;33.75;30.75;;;;;16.11;42.51;101814.63;5021507;28;48374;-69
2022/03/10 09:22:25;;;;;;;;;31.50;29.75;;;;;16.18;42.06;101815.69;5022589;28;45442;-68
2022/03/10 09:24:51;;;;;;;;;29.75;25.00;;;;;16.32;42.33;101823.34;5023349;28;45240;-67
2022/03/10 09:27:16;;;;;;;;;35.25;32.00;;;;;16.52;41.38;101818.50;5036409;28;46453;-67
2022/03/10 09:29:41;;;;;;;;;32.75;30.25;;;;;16.49;40.50;101807.88;5021545;28;48118;-67
2022/03/10 09:32:07;;;;;;;;;32.25;27.50;;;;;16.43;40.53;101812.13;5022735;28;45494;-66
2022/03/10 09:34:32;;;;;;;;;35.25;29.50;;;;;16.49;42.11;101814.22;5022521;28;45232;-67
2022/03/10 09:36:58;;;;;;;;;31.00;30.00;;;;;16.57;39.75;101819.78;5023364;28;45477;-67
2022/03/10 09:39:23;;;;;;;;;32.25;30.50;;;;;16.87;41.33;101818.44;5021938;28;46103;-67
2022/03/10 09:41:49;;;;;;;;;34.25;30.50;;;;;17.30;41.02;101813.84;5035131;28;45393;-69
2022/03/10 09:44:20;;;;;;;;;29.25;26.75;;;;;17.26;38.18;101804.19;5037015;28;45424;-68
2022/03/10 09:46:49;;;;;;;;;31.25;29.75;;;;;17.40;40.27;101809.91;5023464;28;45228;-68
2022/03/10 09:49:14;;;;;;;;;32.75;30.25;;;;;17.34;38.33;101801.47;5021827;28;46356;-68
2022/03/10 09:51:40;;;;;;;;;33.50;28.75;;;;;17.43;39.84;101800.47;5022720;28;45330;-66
2022/03/10 09:54:05;;;;;;;;;33.00;28.00;;;;;17.56;39.26;101795.34;5021339;28;45505;-68
2022/03/10 09:56:31;;;;;;;;;22.25;21.00;;;;;17.84;39.32;101790.44;5033307;28;45606;-68
2022/03/10 09:58:57;;;;;;;;;32.25;29.25;;;;;17.20;38.29;101800.22;5017777;28;45364;-68
2022/03/10 10:01:23;;;;;;;;;29.50;28.00;;;;;16.87;39.91;101799.25;5022767;28;45377;-68
2022/03/10 10:03:48;;;;;;;;;23.75;21.50;;;;;16.59;40.41;101790.28;5022067;28;45262;-68
2022/03/10 10:06:14;;;;;;;;;25.75;25.25;;;;;17.12;39.83;101798.31;5033421;28;45415;-67
2022/03/10 10:08:41;;;;;;;;;34.50;29.25;;;;;17.43;38.77;101798.59;5020780;28;46473;-68
2022/03/10 10:11:08;;;;;;;;;28.50;24.75;;;;;17.54;38.49;101802.88;5022156;28;45178;-68
2022/03/10 10:13:39;;;;;;;;;26.00;25.00;;;;;17.80;39.10;101794.56;5019674;28;45446;-69
2022/03/10 10:16:10;;;;;;;;;26.33;25.67;;;;;18.08;39.14;101792.34;5020758;28;45608;-68
2022/03/10 10:18:38;;;;;;;;;22.75;21.00;;;;;17.47;38.81;101799.09;5021057;28;45480;-68
2022/03/10 10:21:05;;;;;;;;;27.75;27.75;;;;;17.60;39.07;101798.63;5021737;28;45303;-68
2022/03/10 10:23:33;;;;;;;;;27.50;23.50;;;;;17.51;38.40;101789.50;5020495;28;45362;-68
2022/03/10 10:26:01;;;;;;;;;32.75;29.00;;;;;17.33;38.74;101786.88;5022285;28;45346;-68
2022/03/10 10:28:32;;;;;;;;;30.00;26.00;;;;;17.66;39.15;101776.00;5021060;28;45508;-67
2022/03/10 10:31:03;;;;;;;;;22.67;22.33;;;;;17.82;39.80;101784.28;5021855;28;45384;-68
2022/03/10 10:33:30;;;;;;;;;24.33;21.33;;;;;18.02;38.70;101771.91;5018280;28;45344;-68
2022/03/10 10:36:17;;;;;;;;;29.50;24.75;;;;;17.54;38.79;101778.16;5022171;28;45310;-67
2022/03/10 10:38:45;;;;;;;;;23.25;20.25;;;;;17.34;39.12;101772.13;5016438;28;47226;-68
2022/03/10 10:41:25;;;;;;;;;28.75;27.75;;;;;17.29;39.52;101779.16;5020038;28;45427;-68
2022/03/10 10:44:05;;;;;;;;;39.25;32.00;;;;;17.18;39.76;101761.06;5021237;28;45434;-68
2022/03/10 10:46:33;;;;;;;;;28.00;28.00;;;;;17.23;40.27;101771.56;5022559;28;45395;-68
2022/03/10 10:49:15;;;;;;;;;30.75;25.00;;;;;17.30;40.44;101758.91;5013782;28;47358;-68
2022/03/10 10:51:50;;;;;;;;;26.50;25.00;;;;;17.29;39.64;101751.69;5014348;28;45866;-69
2022/03/10 10:54:23;;;;;;;;;21.67;20.33;;;;;17.02;40.59;101753.63;5021249;28;45414;-68
2022/03/10 10:56:49;;;;;;;;;20.67;20.00;;;;;16.85;40.83;101738.16;5020555;28;45521;-68
2022/03/10 10:59:34;;;;;;;;;18.00;18.00;;;;;16.90;40.63;101752.22;5021019;28;46149;-69
2022/03/10 11:02:16;;;;;;;;;22.25;20.75;;;;;16.69;40.79;101746.28;5021834;28;45383;-68
2022/03/10 11:04:44;;;;;;;;;25.00;22.75;;;;;16.32;41.57;101747.44;5021512;28;45327;-68
2022/03/10 11:07:11;;;;;;;;;23.33;18.00;;;;;16.40;42.41;101738.38;5020782;28;45355;-68
2022/03/10 11:09:42;;;;;;;;;19.67;19.33;;;;;16.29;42.67;101727.72;5021481;28;45557;-68
2022/03/10 11:12:09;;;;;;;;;25.00;20.67;;;;;16.27;42.68;101730.59;5020034;28;45267;-68
2022/03/10 11:14:35;;;;;;;;;26.00;23.00;;;;;16.28;42.81;101729.59;5020807;28;45480;-68
2022/03/10 11:17:01;;;;;;;;;23.25;19.00;;;;;16.15;42.55;101731.88;5021419;28;45433;-68